createdAt,value
2023-05-22T00:02:24.353Z,19.30
2023-05-22T00:04:58.637Z,19.32
2023-05-22T00:07:30.065Z,19.27
2023-05-22T00:10:01.482Z,19.19
2023-05-22T00:12:33.804Z,19.31
2023-05-22T00:15:05.990Z,19.29
2023-05-22T00:17:37.535Z,19.26
2023-05-22T00:20:10.862Z,19.17
2023-05-22T00:22:42.260Z,19.18
2023-05-22T00:25:13.741Z,19.21
2023-05-22T00:27:45.211Z,19.17
2023-05-22T00:30:16.713Z,19.15
2023-05-22T00:32:48.048Z,19.11
2023-05-22T00:35:19.544Z,19.07
2023-05-22T00:37:50.897Z,18.93
2023-05-22T00:40:22.352Z,18.98
2023-05-22T00:42:53.803Z,18.92
2023-05-22T00:45:25.464Z,18.81
2023-05-22T00:47:56.893Z,18.84
2023-05-22T00:50:28.376Z,18.80
2023-05-22T00:52:59.822Z,18.75
2023-05-22T00:55:31.412Z,18.72
2023-05-22T00:58:07.700Z,18.61
2023-05-22T01:00:42.100Z,18.66
2023-05-22T01:03:15.014Z,18.55
2023-05-22T01:05:46.530Z,18.49
2023-05-22T01:08:18.036Z,18.52
2023-05-22T01:11:08.163Z,18.53
2023-05-22T01:14:24.839Z,18.49
2023-05-22T01:17:23.669Z,18.43
2023-05-22T01:20:07.419Z,18.39
2023-05-22T01:23:30.099Z,18.36
2023-05-22T01:26:31.901Z,18.30
2023-05-22T01:29:19.451Z,18.21
2023-05-22T01:31:52.620Z,18.04
2023-05-22T01:34:25.755Z,18.11
2023-05-22T01:36:58.012Z,18.03
2023-05-22T01:39:30.448Z,18.00
2023-05-22T01:42:02.363Z,17.89
2023-05-22T01:44:33.695Z,17.67
2023-05-22T01:47:05.792Z,17.89
2023-05-22T01:49:37.622Z,17.88
2023-05-22T01:52:32.008Z,17.86
2023-05-22T01:55:21.116Z,17.81
2023-05-22T01:58:02.822Z,17.81
2023-05-22T02:00:36.226Z,17.80
2023-05-22T02:03:13.500Z,17.75
2023-05-22T02:05:46.956Z,17.78
2023-05-22T02:08:20.368Z,17.78
2023-05-22T02:10:55.875Z,17.79
2023-05-22T02:13:27.721Z,17.78
2023-05-22T02:15:59.221Z,17.72
2023-05-22T02:18:31.369Z,17.77
2023-05-22T02:21:03.253Z,17.77
2023-05-22T02:23:34.966Z,17.79
2023-05-22T02:26:06.631Z,17.67
2023-05-22T02:28:38.145Z,17.72
2023-05-22T02:31:09.509Z,17.79
2023-05-22T02:33:40.938Z,17.81
2023-05-22T02:36:14.336Z,17.81
2023-05-22T02:38:45.695Z,17.80
2023-05-22T02:41:17.153Z,17.80
2023-05-22T02:43:48.455Z,17.80
2023-05-22T02:46:19.891Z,17.73
2023-05-22T02:48:51.220Z,17.78
2023-05-22T02:51:22.617Z,17.75
2023-05-22T02:53:53.943Z,17.71
2023-05-22T02:56:27.744Z,17.71
2023-05-22T02:58:59.119Z,17.68
2023-05-22T03:01:31.163Z,17.66
2023-05-22T03:04:02.571Z,17.48
2023-05-22T03:06:35.028Z,17.67
2023-05-22T03:09:06.384Z,17.66
2023-05-22T03:11:37.858Z,17.66
2023-05-22T03:14:09.197Z,17.67
2023-05-22T03:16:41.505Z,17.67
2023-05-22T03:19:14.772Z,17.67
2023-05-22T03:21:48.328Z,17.68
2023-05-22T03:24:19.680Z,17.68
2023-05-22T03:26:51.145Z,17.63
2023-05-22T03:29:22.538Z,17.71
2023-05-22T03:31:54.637Z,17.74
2023-05-22T03:34:27.347Z,17.75
2023-05-22T03:36:58.674Z,17.77
2023-05-22T03:39:30.084Z,17.78
2023-05-22T03:42:01.493Z,17.82
2023-05-22T03:44:32.823Z,17.84
2023-05-22T03:47:04.531Z,17.78
2023-05-22T03:49:35.945Z,17.80
2023-05-22T03:52:10.116Z,17.96
2023-05-22T03:54:41.418Z,17.97
2023-05-22T03:57:12.744Z,18.04
2023-05-22T03:59:44.051Z,18.09
2023-05-22T04:02:16.704Z,18.09
2023-05-22T04:04:48.489Z,18.19
2023-05-22T04:07:20.260Z,18.27
2023-05-22T04:09:51.603Z,18.26
2023-05-22T04:12:22.946Z,18.31
2023-05-22T04:14:54.304Z,18.40
2023-05-22T04:17:30.856Z,18.42
2023-05-22T04:20:02.317Z,18.42
2023-05-22T04:22:33.878Z,18.42
2023-05-22T04:25:05.701Z,18.43
2023-05-22T04:27:37.912Z,18.42
2023-05-22T04:30:10.427Z,18.35
2023-05-22T04:32:41.824Z,18.36
2023-05-22T04:35:13.239Z,18.44
2023-05-22T04:37:45.585Z,18.47
2023-05-22T04:40:17.086Z,18.41
2023-05-22T04:42:48.417Z,18.50
2023-05-22T04:45:21.119Z,18.54
2023-05-22T04:47:53.182Z,18.59
2023-05-22T04:50:24.841Z,18.63
2023-05-22T04:52:57.364Z,18.55
2023-05-22T04:55:29.521Z,18.73
2023-05-22T04:58:00.955Z,18.78
2023-05-22T05:00:32.499Z,18.83
2023-05-22T05:03:04.065Z,18.91
2023-05-22T05:05:35.581Z,18.99
2023-05-22T05:08:06.903Z,19.09
2023-05-22T05:10:38.509Z,19.10
2023-05-22T05:13:10.018Z,19.23
2023-05-22T05:15:41.355Z,19.37
2023-05-22T05:18:12.983Z,19.47
2023-05-22T05:20:44.394Z,19.53
2023-05-22T05:23:15.943Z,19.59
2023-05-22T05:25:47.249Z,19.66
2023-05-22T05:28:18.665Z,19.68
2023-05-22T05:30:50.049Z,19.73
2023-05-22T05:33:21.560Z,19.48
2023-05-22T05:35:53.566Z,19.84
2023-05-22T05:38:25.048Z,19.83
2023-05-22T05:40:56.368Z,19.93
2023-05-22T05:43:28.248Z,19.86
2023-05-22T05:46:00.095Z,19.93
2023-05-22T05:48:31.489Z,20.03
2023-05-22T05:51:02.918Z,20.12
2023-05-22T05:53:34.279Z,20.24
2023-05-22T05:56:06.594Z,20.32
2023-05-22T05:58:37.992Z,20.45
2023-05-22T06:01:09.568Z,20.54
2023-05-22T06:03:41.202Z,20.87
2023-05-22T06:06:12.689Z,21.24
2023-05-22T06:08:44.589Z,21.73
2023-05-22T06:11:15.900Z,22.31
2023-05-22T06:13:47.228Z,22.30
2023-05-22T06:16:18.724Z,22.32
2023-05-22T06:18:52.407Z,22.13
2023-05-22T06:21:24.457Z,22.19
2023-05-22T06:23:55.857Z,22.17
2023-05-22T06:26:27.640Z,22.15
2023-05-22T06:28:58.968Z,22.20
2023-05-22T06:31:30.377Z,22.38
2023-05-22T06:34:01.823Z,22.64
2023-05-22T06:36:34.653Z,23.03
2023-05-22T06:39:06.754Z,23.10
2023-05-22T06:41:38.082Z,23.40
2023-05-22T06:44:09.459Z,23.71
2023-05-22T06:46:41.006Z,23.82
2023-05-22T06:49:12.681Z,23.86
2023-05-22T06:51:43.999Z,24.02
2023-05-22T06:54:15.391Z,24.16
2023-05-22T06:56:46.855Z,24.36
2023-05-22T06:59:18.210Z,24.47
2023-05-22T07:01:49.567Z,24.60
2023-05-22T07:04:20.900Z,24.63
2023-05-22T07:06:52.508Z,24.33
2023-05-22T07:09:23.899Z,24.36
2023-05-22T07:11:55.231Z,24.29
2023-05-22T07:14:26.542Z,24.42
2023-05-22T07:16:57.934Z,24.58
2023-05-22T07:19:29.493Z,24.66
2023-05-22T07:22:01.162Z,24.64
2023-05-22T07:24:32.507Z,24.73
2023-05-22T07:27:04.428Z,24.77
2023-05-22T07:29:36.207Z,24.70
2023-05-22T07:32:08.111Z,24.77
2023-05-22T07:34:39.546Z,24.87
2023-05-22T07:37:12.867Z,24.97
2023-05-22T07:39:46.439Z,25.04
2023-05-22T07:42:17.864Z,25.10
2023-05-22T07:44:49.326Z,25.24
2023-05-22T07:47:20.711Z,25.16
2023-05-22T07:49:52.025Z,25.16
2023-05-22T07:52:23.831Z,25.04
2023-05-22T07:54:55.324Z,25.17
2023-05-22T07:57:26.678Z,25.18
2023-05-22T07:59:59.186Z,25.26
2023-05-22T08:02:30.590Z,25.36
2023-05-22T08:05:04.359Z,25.38
2023-05-22T08:07:36.438Z,25.37
2023-05-22T08:10:13.955Z,25.32
2023-05-22T08:12:45.380Z,25.50
2023-05-22T08:15:16.706Z,25.62
2023-05-22T08:17:48.053Z,25.79
2023-05-22T08:20:19.412Z,25.97
2023-05-22T08:22:51.771Z,26.07
2023-05-22T08:25:23.172Z,26.14
2023-05-22T08:27:54.505Z,26.18
2023-05-22T08:30:25.850Z,26.18
2023-05-22T08:32:57.319Z,26.12
2023-05-22T08:35:28.709Z,26.15
2023-05-22T08:38:00.131Z,26.16
2023-05-22T08:40:40.261Z,26.31
2023-05-22T08:43:12.873Z,26.40
2023-05-22T08:45:44.406Z,26.56
2023-05-22T08:48:19.368Z,26.70
2023-05-22T08:50:57.336Z,26.76
2023-05-22T08:53:29.544Z,26.83
2023-05-22T08:56:08.581Z,26.97
2023-05-22T08:58:40.856Z,27.01
2023-05-22T09:01:13.911Z,27.00
2023-05-22T09:03:49.315Z,26.92
2023-05-22T09:06:20.628Z,26.97
2023-05-22T09:08:53.281Z,27.09
2023-05-22T09:11:26.086Z,27.17
2023-05-22T09:14:08.424Z,27.23
2023-05-22T09:16:47.097Z,27.46
2023-05-22T09:19:18.954Z,27.54
2023-05-22T09:21:51.280Z,27.69
2023-05-22T09:24:22.583Z,27.79
2023-05-22T09:26:53.984Z,27.88
2023-05-22T09:29:25.712Z,27.98
2023-05-22T09:31:57.260Z,28.10
2023-05-22T09:34:29.780Z,28.17
2023-05-22T09:37:05.597Z,28.27
2023-05-22T09:39:47.485Z,28.45
2023-05-22T09:42:18.991Z,28.46
2023-05-22T09:44:51.530Z,28.31
2023-05-22T09:47:23.909Z,28.38
2023-05-22T09:49:57.517Z,28.64
2023-05-22T09:52:29.111Z,28.71
2023-05-22T09:55:04.633Z,28.85
2023-05-22T09:57:46.392Z,29.01
2023-05-22T10:00:18.407Z,28.95
2023-05-22T10:03:09.236Z,28.75
2023-05-22T10:05:43.524Z,28.92
2023-05-22T10:08:20.851Z,29.15
2023-05-22T10:10:53.121Z,29.18
2023-05-22T10:13:25.212Z,29.34
2023-05-22T10:15:57.194Z,29.38
2023-05-22T10:18:28.852Z,29.38
2023-05-22T10:21:00.624Z,29.51
2023-05-22T10:23:32.375Z,29.59
2023-05-22T10:26:04.589Z,29.65
2023-05-22T10:28:42.774Z,29.66
2023-05-22T10:31:40.053Z,29.90
2023-05-22T10:34:22.061Z,30.09
2023-05-22T10:37:16.483Z,30.54
2023-05-22T10:39:51.618Z,30.87
2023-05-22T10:42:23.095Z,31.21
2023-05-22T10:44:54.447Z,31.35
2023-05-22T10:47:26.150Z,31.44
2023-05-22T10:50:09.462Z,31.63
2023-05-22T10:52:44.518Z,31.63
2023-05-22T10:55:22.516Z,31.66
2023-05-22T10:57:55.451Z,31.49
2023-05-22T11:00:30.535Z,31.14
2023-05-22T11:03:18.014Z,31.00
2023-05-22T11:05:54.022Z,30.71
2023-05-22T11:08:25.288Z,30.72
2023-05-22T11:10:59.185Z,30.72
2023-05-22T11:13:31.272Z,30.78
2023-05-22T11:16:05.215Z,30.80
2023-05-22T11:18:36.633Z,31.07
2023-05-22T11:21:10.188Z,31.35
2023-05-22T11:23:41.660Z,31.55
2023-05-22T11:26:22.231Z,31.63
2023-05-22T11:28:54.160Z,31.47
2023-05-22T11:31:26.826Z,31.39
2023-05-22T11:33:58.544Z,31.39
2023-05-22T11:36:30.145Z,31.55
2023-05-22T11:39:01.495Z,31.72
2023-05-22T11:41:34.219Z,31.71
2023-05-22T11:44:08.128Z,31.79
2023-05-22T11:46:39.903Z,31.74
2023-05-22T11:49:14.765Z,31.67
2023-05-22T11:51:48.764Z,31.40
2023-05-22T11:54:20.408Z,31.21
2023-05-22T11:56:51.783Z,30.99
2023-05-22T11:59:23.161Z,30.92
2023-05-22T12:01:54.640Z,30.86
2023-05-22T12:04:26.485Z,30.67
2023-05-22T12:06:58.067Z,30.70
2023-05-22T12:09:29.564Z,30.80
2023-05-22T12:12:01.306Z,30.81
2023-05-22T12:14:32.780Z,30.84
2023-05-22T12:17:04.557Z,30.67
2023-05-22T12:19:47.209Z,30.53
2023-05-22T12:22:21.248Z,30.42
2023-05-22T12:24:53.931Z,30.29
2023-05-22T12:27:33.073Z,30.24
2023-05-22T12:30:13.574Z,30.15
2023-05-22T12:32:49.397Z,30.02
2023-05-22T12:35:20.928Z,29.93
2023-05-22T12:37:52.374Z,29.90
2023-05-22T12:40:23.773Z,29.90
2023-05-22T12:42:55.329Z,29.94
2023-05-22T12:45:26.720Z,29.81
2023-05-22T12:47:58.050Z,29.90
2023-05-22T12:50:29.416Z,29.96
2023-05-22T12:53:03.856Z,30.16
2023-05-22T12:55:35.725Z,30.19
2023-05-22T12:58:07.351Z,30.42
2023-05-22T13:00:38.989Z,30.59
2023-05-22T13:03:12.000Z,30.99
2023-05-22T13:05:43.406Z,31.49
2023-05-22T13:08:14.813Z,31.70
2023-05-22T13:10:46.154Z,32.05
2023-05-22T13:13:17.602Z,32.21
2023-05-22T13:15:49.067Z,32.24
2023-05-22T13:18:20.485Z,32.28
2023-05-22T13:20:51.958Z,32.08
2023-05-22T13:23:23.565Z,31.81
2023-05-22T13:25:55.133Z,31.37
2023-05-22T13:28:26.617Z,31.06
2023-05-22T13:30:57.925Z,30.61
2023-05-22T13:33:29.353Z,30.67
2023-05-22T13:36:01.133Z,30.78
2023-05-22T13:38:32.503Z,30.76
2023-05-22T13:41:03.975Z,30.83
2023-05-22T13:43:35.337Z,30.93
2023-05-22T13:46:06.951Z,30.87
2023-05-22T13:48:38.756Z,30.89
2023-05-22T13:51:10.083Z,30.75
2023-05-22T13:53:41.431Z,30.51
2023-05-22T13:56:12.832Z,30.41
2023-05-22T13:58:44.287Z,30.32
2023-05-22T14:01:15.740Z,30.25
2023-05-22T14:03:47.151Z,30.19
2023-05-22T14:06:18.620Z,30.08
2023-05-22T14:08:49.936Z,29.94
2023-05-22T14:11:22.435Z,29.60
2023-05-22T14:13:54.136Z,29.46
2023-05-22T14:16:25.574Z,29.22
2023-05-22T14:18:57.117Z,29.02
2023-05-22T14:21:28.595Z,28.73
2023-05-22T14:24:02.346Z,28.51
2023-05-22T14:26:33.737Z,28.14
2023-05-22T14:29:05.329Z,27.56
2023-05-22T14:31:50.499Z,26.12
2023-05-22T14:34:22.936Z,23.82
2023-05-22T14:36:56.486Z,22.18
2023-05-22T14:39:27.990Z,21.05
2023-05-22T14:41:59.373Z,20.28
2023-05-22T14:44:30.701Z,20.16
2023-05-22T14:47:02.032Z,19.92
2023-05-22T14:49:33.369Z,19.74
2023-05-22T14:52:04.941Z,19.46
2023-05-22T14:54:36.290Z,19.19
2023-05-22T14:57:07.609Z,19.06
2023-05-22T14:59:38.998Z,18.76
2023-05-22T15:02:10.503Z,18.54
2023-05-22T15:04:41.874Z,18.42
2023-05-22T15:07:13.205Z,18.30
2023-05-22T15:09:44.522Z,18.32
2023-05-22T15:12:15.854Z,18.35
2023-05-22T15:14:47.167Z,18.41
2023-05-22T15:17:18.583Z,18.25
2023-05-22T15:19:49.984Z,18.28
2023-05-22T15:22:21.400Z,18.14
2023-05-22T15:25:11.352Z,17.92
2023-05-22T15:27:42.804Z,18.12
2023-05-22T15:30:17.324Z,18.28
2023-05-22T15:32:49.077Z,18.21
2023-05-22T15:35:20.749Z,18.15
2023-05-22T15:37:52.586Z,18.62
2023-05-22T15:40:24.060Z,18.61
2023-05-22T15:42:55.820Z,18.34
2023-05-22T15:45:27.482Z,18.34
2023-05-22T15:47:59.010Z,18.10
2023-05-22T15:50:31.391Z,18.52
2023-05-22T15:53:02.779Z,18.72
2023-05-22T15:55:34.527Z,18.86
2023-05-22T15:58:07.733Z,18.94
2023-05-22T16:00:41.241Z,18.87
2023-05-22T16:03:13.240Z,19.08
2023-05-22T16:05:46.914Z,19.27
2023-05-22T16:08:18.379Z,19.39
2023-05-22T16:10:49.828Z,19.49
2023-05-22T16:13:21.255Z,19.37
2023-05-22T16:15:52.995Z,19.41
2023-05-22T16:18:24.369Z,19.43
2023-05-22T16:20:55.748Z,19.40
2023-05-22T16:23:27.180Z,19.36
2023-05-22T16:25:58.500Z,19.34
2023-05-22T16:28:29.883Z,19.30
2023-05-22T16:31:01.314Z,19.34
2023-05-22T16:33:34.342Z,19.33
2023-05-22T16:36:06.983Z,19.23
2023-05-22T16:38:38.385Z,19.24
2023-05-22T16:41:09.727Z,19.23
2023-05-22T16:43:41.211Z,19.22
2023-05-22T16:46:12.779Z,19.29
2023-05-22T16:48:44.320Z,19.27
2023-05-22T16:51:15.966Z,19.07
2023-05-22T16:53:49.416Z,18.96
2023-05-22T16:56:21.024Z,18.77
2023-05-22T16:58:52.508Z,18.47
2023-05-22T17:01:23.957Z,18.43
2023-05-22T17:03:55.436Z,18.35
2023-05-22T17:06:27.669Z,18.41
2023-05-22T17:08:58.997Z,18.41
2023-05-22T17:11:30.470Z,18.43
2023-05-22T17:14:02.008Z,18.43
2023-05-22T17:16:33.441Z,18.36
2023-05-22T17:19:04.905Z,18.30
2023-05-22T17:21:38.086Z,18.26
2023-05-22T17:24:11.615Z,18.26
2023-05-22T17:26:45.229Z,18.28
2023-05-22T17:29:17.075Z,18.19
2023-05-22T17:31:48.568Z,18.15
2023-05-22T17:34:19.928Z,18.19
2023-05-22T17:36:51.225Z,18.22
2023-05-22T17:39:22.658Z,18.24
2023-05-22T17:41:54.520Z,18.27
2023-05-22T17:44:26.146Z,18.36
2023-05-22T17:46:57.837Z,18.37
2023-05-22T17:49:29.298Z,18.21
2023-05-22T17:52:00.707Z,18.23
2023-05-22T17:54:35.789Z,18.25
2023-05-22T17:57:07.205Z,18.18
2023-05-22T17:59:40.395Z,18.14
2023-05-22T18:02:12.046Z,18.02
2023-05-22T18:04:43.527Z,18.08
2023-05-22T18:07:17.123Z,18.08
2023-05-22T18:09:48.544Z,18.07
2023-05-22T18:14:54.323Z,17.88
2023-05-22T18:17:26.378Z,17.96
2023-05-22T18:19:57.885Z,17.89
2023-05-22T18:22:29.213Z,17.74
2023-05-22T18:25:01.265Z,17.81
2023-05-22T18:27:33.202Z,17.79
2023-05-22T18:30:05.282Z,17.78
2023-05-22T18:32:36.873Z,17.74
2023-05-22T18:35:08.962Z,17.74
2023-05-22T18:37:40.402Z,17.79
2023-05-22T18:40:12.492Z,17.81
2023-05-22T18:42:43.864Z,17.82
2023-05-22T18:45:15.303Z,17.72
2023-05-22T18:47:46.698Z,17.85
2023-05-22T18:50:18.207Z,17.75
2023-05-22T18:52:49.535Z,17.93
2023-05-22T18:55:21.998Z,17.98
2023-05-22T18:57:53.546Z,18.02
2023-05-22T19:00:24.957Z,18.01
2023-05-22T19:02:56.440Z,18.04
2023-05-22T19:05:27.866Z,18.07
2023-05-22T19:07:59.236Z,18.09
2023-05-22T19:10:30.604Z,18.13
2023-05-22T19:13:01.991Z,18.19
2023-05-22T19:15:37.512Z,18.20
2023-05-22T19:18:09.012Z,18.28
2023-05-22T19:20:41.066Z,18.29
2023-05-22T19:23:13.715Z,18.22
2023-05-22T19:25:45.055Z,18.10
2023-05-22T19:28:16.497Z,17.91
2023-05-22T19:30:48.012Z,17.94
2023-05-22T19:33:21.207Z,17.88
2023-05-22T19:35:53.324Z,17.83
2023-05-22T19:38:25.038Z,17.82
2023-05-22T19:40:56.454Z,17.68
2023-05-22T19:43:28.014Z,17.71
2023-05-22T19:45:59.501Z,17.70
2023-05-22T19:48:33.138Z,17.55
2023-05-22T19:51:05.123Z,17.70
2023-05-22T19:53:36.591Z,17.71
2023-05-22T19:56:08.158Z,17.69
2023-05-22T19:58:39.711Z,17.63
2023-05-22T20:01:11.143Z,17.69
2023-05-22T20:03:42.694Z,17.62
2023-05-22T20:06:14.435Z,17.67
2023-05-22T20:08:46.014Z,17.74
2023-05-22T20:11:17.335Z,17.67
2023-05-22T20:13:48.677Z,17.69
2023-05-22T20:16:20.487Z,17.60
2023-05-22T20:18:54.015Z,17.60
2023-05-22T20:21:25.551Z,17.66
2023-05-22T20:23:57.037Z,17.74
2023-05-22T20:26:28.418Z,17.74
2023-05-22T20:28:59.771Z,17.73
2023-05-22T20:31:31.551Z,17.70
2023-05-22T20:34:04.618Z,17.70
2023-05-22T20:36:36.277Z,17.71
2023-05-22T20:39:09.047Z,17.52
2023-05-22T20:41:40.364Z,17.58
2023-05-22T20:44:11.690Z,17.53
2023-05-22T20:46:43.095Z,17.34
2023-05-22T20:49:14.450Z,17.39
2023-05-22T20:51:50.003Z,17.35
2023-05-22T20:54:21.346Z,17.40
2023-05-22T20:56:54.618Z,17.38
2023-05-22T20:59:26.102Z,17.37
2023-05-22T21:01:57.834Z,17.38
2023-05-22T21:04:29.254Z,17.26
2023-05-22T21:07:00.777Z,17.34
2023-05-22T21:09:32.087Z,17.32
2023-05-22T21:12:03.939Z,17.22
2023-05-22T21:14:35.278Z,17.29
2023-05-22T21:17:06.848Z,17.31
2023-05-22T21:19:38.332Z,17.27
2023-05-22T21:22:09.678Z,17.25
2023-05-22T21:24:40.994Z,17.19
2023-05-22T21:27:12.336Z,17.13
2023-05-22T21:29:43.632Z,17.09
2023-05-22T21:32:14.938Z,17.07
2023-05-22T21:34:46.682Z,17.02
2023-05-22T21:37:18.028Z,16.96
2023-05-22T21:39:49.793Z,16.88
2023-05-22T21:42:21.718Z,16.84
2023-05-22T21:44:53.012Z,16.88
2023-05-22T21:47:24.379Z,16.90
2023-05-22T21:49:55.721Z,16.93
2023-05-22T21:52:28.583Z,16.94
2023-05-22T21:55:02.147Z,16.97
2023-05-22T21:57:34.196Z,16.95
2023-05-22T22:00:06.053Z,16.95
2023-05-22T22:02:37.449Z,16.90
2023-05-22T22:05:11.507Z,16.96
2023-05-22T22:07:42.812Z,16.94
2023-05-22T22:10:14.172Z,16.93
2023-05-22T22:12:45.485Z,16.79
2023-05-22T22:15:17.103Z,16.91
2023-05-22T22:17:49.990Z,16.89
2023-05-22T22:20:30.539Z,16.89
2023-05-22T22:23:15.021Z,16.87
2023-05-22T22:25:46.451Z,16.85
2023-05-22T22:28:17.788Z,16.80
2023-05-22T22:30:49.155Z,16.76
2023-05-22T22:33:22.489Z,16.66
2023-05-22T22:35:53.915Z,16.66
2023-05-22T22:38:25.262Z,16.58
2023-05-22T22:40:56.576Z,16.64
2023-05-22T22:43:27.954Z,16.62
2023-05-22T22:45:59.311Z,16.65
2023-05-22T22:48:30.669Z,16.63
2023-05-22T22:51:02.510Z,16.53
2023-05-22T22:53:33.864Z,16.61
2023-05-22T22:56:05.497Z,16.61
2023-05-22T22:58:36.819Z,16.49
2023-05-22T23:01:08.289Z,16.48
2023-05-22T23:03:39.664Z,16.61
2023-05-22T23:06:11.197Z,16.60
2023-05-22T23:08:42.517Z,16.48
2023-05-22T23:11:13.825Z,16.61
2023-05-22T23:13:45.356Z,16.63
2023-05-22T23:16:16.800Z,16.68
2023-05-22T23:18:48.255Z,16.71
2023-05-22T23:21:19.628Z,16.68
2023-05-22T23:23:50.935Z,16.67
2023-05-22T23:26:22.382Z,16.61
2023-05-22T23:28:54.090Z,16.67
2023-05-22T23:31:26.126Z,16.67
2023-05-22T23:33:58.566Z,16.77
2023-05-22T23:36:29.927Z,16.78
2023-05-22T23:39:01.234Z,16.81
2023-05-22T23:41:33.308Z,16.73
2023-05-22T23:44:04.653Z,16.84
2023-05-22T23:46:37.517Z,16.84
2023-05-22T23:49:09.113Z,16.86
2023-05-22T23:51:40.486Z,16.87
2023-05-22T23:54:13.050Z,16.87
2023-05-22T23:56:45.068Z,16.85
2023-05-22T23:59:16.663Z,16.90
